createdAt,value
2023-03-29T00:08:40.260Z,0.2
2023-03-29T00:22:40.238Z,0
2023-03-29T00:36:40.251Z,0
2023-03-29T00:50:40.246Z,0.2
2023-03-29T01:04:40.283Z,0
2023-03-29T01:18:40.349Z,0.6
2023-03-29T01:32:40.300Z,0.8
2023-03-29T01:46:40.364Z,0
2023-03-29T02:00:40.349Z,0
2023-03-29T02:14:40.365Z,0
2023-03-29T02:28:40.372Z,0
2023-03-29T02:42:40.395Z,0
2023-03-29T02:56:40.415Z,0
2023-03-29T03:10:40.388Z,0
2023-03-29T03:24:40.400Z,0
2023-03-29T03:38:40.381Z,0
2023-03-29T03:52:40.438Z,0
2023-03-29T04:06:42.466Z,0.4
2023-03-29T04:20:40.415Z,0.8
2023-03-29T04:34:40.478Z,0
2023-03-29T04:48:40.459Z,0
2023-03-29T05:03:40.461Z,0
2023-03-29T05:18:40.488Z,0
2023-03-29T05:33:40.487Z,0.8
2023-03-29T05:48:40.534Z,0
2023-03-29T06:03:40.680Z,0.6
2023-03-29T06:18:40.541Z,0
2023-03-29T06:33:40.547Z,0
2023-03-29T06:48:40.561Z,0.2
2023-03-29T07:03:40.579Z,0
2023-03-29T07:18:40.610Z,0
2023-03-29T07:33:40.845Z,0.4
2023-03-29T07:48:40.728Z,1.0
2023-03-29T08:03:40.752Z,1.0
2023-03-29T08:18:40.723Z,0.9
2023-03-29T08:33:40.757Z,0.2
2023-03-29T08:48:40.794Z,1.0
2023-03-29T09:03:40.889Z,1.1
2023-03-29T09:18:40.871Z,0.9
2023-03-29T09:33:40.825Z,1.3
2023-03-29T09:48:40.889Z,0.9
2023-03-29T10:03:40.821Z,1.2
2023-03-29T10:18:40.832Z,1.5
2023-03-29T10:33:40.829Z,0.9
2023-03-29T10:48:40.798Z,0.6
2023-03-29T11:03:40.918Z,0.6
2023-03-29T11:18:40.830Z,1.1
2023-03-29T11:33:40.813Z,0.7
2023-03-29T11:48:40.845Z,0.6
2023-03-29T12:03:40.980Z,1.1
2023-03-29T12:18:40.860Z,1.6
2023-03-29T12:33:40.848Z,2.1
2023-03-29T12:48:40.857Z,1.0
2023-03-29T13:03:40.885Z,0.6
2023-03-29T13:18:40.877Z,0.8
2023-03-29T13:33:40.893Z,1.5
2023-03-29T13:48:40.884Z,0.4
2023-03-29T14:03:40.898Z,0
2023-03-29T14:18:40.902Z,1.1
2023-03-29T14:33:40.907Z,0.9
2023-03-29T14:48:40.925Z,0.8
2023-03-29T15:03:41.025Z,1.3
2023-03-29T15:17:50.789Z,0.4
2023-03-29T15:31:41.001Z,0.6
2023-03-29T15:45:40.915Z,0.8
2023-03-29T15:59:40.924Z,0.8
2023-03-29T16:13:42.464Z,0.6
2023-03-29T16:27:40.913Z,0
2023-03-29T16:41:40.936Z,0.2
2023-03-29T16:55:40.943Z,0
2023-03-29T17:09:40.946Z,0
2023-03-29T17:23:40.960Z,0
2023-03-29T17:37:40.974Z,0
2023-03-29T17:52:40.968Z,0
2023-03-29T18:06:40.979Z,0
2023-03-29T18:20:40.994Z,0.6
2023-03-29T18:33:40.994Z,0.4
2023-03-29T18:46:41.126Z,0.2
2023-03-29T18:59:40.998Z,0.2
2023-03-29T19:12:41.031Z,0
2023-03-29T19:25:41.039Z,0.4
2023-03-29T19:38:41.049Z,0.8
2023-03-29T19:51:41.025Z,0
2023-03-29T20:04:41.146Z,0
2023-03-29T20:17:41.110Z,0
2023-03-29T20:30:41.040Z,0
2023-03-29T20:43:42.687Z,0
2023-03-29T20:56:41.151Z,0
2023-03-29T21:09:41.082Z,0
2023-03-29T21:22:41.141Z,0
2023-03-29T21:35:41.138Z,0
2023-03-29T21:48:41.149Z,0
2023-03-29T22:01:41.172Z,0.6
2023-03-29T22:14:41.137Z,0
2023-03-29T22:27:41.181Z,0.8
2023-03-29T22:40:41.196Z,0
2023-03-29T22:53:41.174Z,0
2023-03-29T23:06:41.172Z,0
2023-03-29T23:19:41.179Z,0
2023-03-29T23:32:41.197Z,0
2023-03-29T23:45:41.232Z,0
2023-03-29T23:58:41.185Z,0.2
